Terminal Aerodrome Forecast
Issued by NWS Melbourne, FL

Home | Current Version | Previous Version | Text Only | Print | Product List | Glossary On
Versions: 1 2 3 4 5 6 7 8 9 10 11 12 13 14 15 16 17 18 19
120
FTUS42 KMLB 201125
TAFDAB
TAF
KDAB 201125Z 2012/2112 00000KT P6SM SKC
     FM201400 VRB03KT P6SM SCT025
     FM201800 07009KT P6SM VCTS SCT035CB
     FM202200 09008KT P6SM FEW040 BKN120 OVC250=

USA.gov is the U.S. government's official web portal to all federal, state and local government web resources and services.